Time;durP1;ratioP1;P1;durP2;ratioP2;P2;SDS_P1;SDS_P2;PMS_P1;PMS_P2;Temp;Humidity;BMP_temperature;BMP_pressure;BME280_temperature;BME280_humidity;BME280_pressure;Samples;Min_cycle;Max_cycle;Signal;HPM_P1;HPM_P2
2021/01/17 00:01:06;;;;;;;3.27;1.98;;;;;;;-5.52;74.26;97640.84;1675789;85;21160;-72
2021/01/17 00:03:34;;;;;;;2.75;2.42;;;;;;;-5.58;75.14;97636.45;1675726;85;21596;-71
2021/01/17 00:06:03;;;;;;;2.42;2.22;;;;;;;-5.80;76.00;97647.27;1675670;85;21243;-71
2021/01/17 00:08:31;;;;;;;1.20;1.10;;;;;;;-6.13;77.76;97648.41;1671498;85;21243;-72
2021/01/17 00:10:59;;;;;;;4.85;2.00;;;;;;;-6.15;78.47;97651.44;1670710;86;21720;-66
2021/01/17 00:13:27;;;;;;;3.40;1.70;;;;;;;-6.23;79.00;97652.55;1670779;86;21224;-66
2021/01/17 00:15:55;;;;;;;1.07;0.88;;;;;;;-6.11;78.22;97654.70;1670608;86;21268;-66
2021/01/17 00:18:24;;;;;;;2.17;1.27;;;;;;;-6.06;77.12;97644.80;1670648;85;22519;-66
2021/01/17 00:20:54;;;;;;;0.30;0.30;;;;;;;-6.04;77.03;97648.13;1667868;85;21189;-66
2021/01/17 00:23:22;;;;;;;2.33;1.45;;;;;;;-6.10;77.10;97646.21;1670969;85;21216;-71
2021/01/17 00:25:51;;;;;;;1.47;1.12;;;;;;;-6.19;78.14;97651.58;1670736;86;21215;-71
2021/01/17 00:28:19;;;;;;;1.95;1.52;;;;;;;-6.13;77.50;97650.94;1670666;85;21171;-71
2021/01/17 00:30:48;;;;;;;1.02;1.02;;;;;;;-6.28;78.58;97651.42;1670658;85;21205;-71
2021/01/17 00:33:16;;;;;;;1.30;0.65;;;;;;;-6.23;77.86;97650.02;1671502;86;21562;-66
2021/01/17 00:35:44;;;;;;;3.60;2.62;;;;;;;-6.37;78.49;97647.48;1671111;85;21284;-66
2021/01/17 00:38:13;;;;;;;1.30;0.68;;;;;;;-6.36;79.13;97644.52;1670692;86;21641;-66
2021/01/17 00:40:41;;;;;;;0.60;0.60;;;;;;;-6.30;78.20;97646.41;1670843;86;21156;-66
2021/01/17 00:43:09;;;;;;;1.05;1.05;;;;;;;-6.19;77.66;97651.14;1671089;86;21184;-71
2021/01/17 00:45:37;;;;;;;2.87;2.67;;;;;;;-6.17;77.25;97650.64;1670968;86;21176;-71
2021/01/17 00:48:08;;;;;;;2.95;1.25;;;;;;;-6.21;78.13;97650.35;1670777;86;21175;-71
2021/01/17 00:50:36;;;;;;;0.50;0.50;;;;;;;-6.21;77.96;97644.03;1670699;85;21212;-71
2021/01/17 00:53:05;;;;;;;1.22;1.15;;;;;;;-6.19;78.02;97646.53;1670540;85;21213;-71
2021/01/17 00:55:35;;;;;;;2.37;1.42;;;;;;;-6.23;78.39;97644.53;1670873;86;21334;-70
2021/01/17 00:58:05;;;;;;;2.85;1.45;;;;;;;-6.20;78.14;97641.91;1670634;85;21151;-70
2021/01/17 01:00:34;;;;;;;8.20;1.50;;;;;;;-6.20;77.96;97638.55;1668195;85;21629;-70
2021/01/17 01:03:12;;;;;;;2.83;1.57;;;;;;;-6.11;77.48;97637.83;1747357;80;21181;-73
2021/01/17 01:05:40;;;;;;;1.85;1.75;;;;;;;-6.16;78.23;97638.41;1753721;81;21162;-72
2021/01/17 01:08:08;;;;;;;1.70;1.05;;;;;;;-6.12;77.81;97636.61;1753781;81;21150;-70
2021/01/17 01:10:37;;;;;;;1.55;0.95;;;;;;;-6.18;77.32;97641.41;1753376;82;21738;-70
2021/01/17 01:13:05;;;;;;;3.98;1.80;;;;;;;-6.29;77.72;97643.02;1753659;81;21155;-72
2021/01/17 01:15:34;;;;;;;7.12;2.08;;;;;;;-6.43;78.35;97641.36;1753381;80;21167;-67
2021/01/17 01:18:02;;;;;;;2.30;1.52;;;;;;;-6.52;78.64;97639.11;1753578;80;21179;-72
2021/01/17 01:20:30;;;;;;;1.57;1.47;;;;;;;-6.61;79.07;97637.31;1753500;82;21279;-72
2021/01/17 01:22:58;;;;;;;2.45;1.77;;;;;;;-6.77;79.66;97641.53;1753710;80;21552;-72
2021/01/17 01:25:27;;;;;;;2.80;2.52;;;;;;;-6.80;80.76;97640.37;1753455;81;21286;-72
2021/01/17 01:27:55;;;;;;;1.35;1.25;;;;;;;-6.88;80.46;97634.71;1753462;82;21163;-73
2021/01/17 01:30:25;;;;;;;3.12;2.40;;;;;;;-6.87;80.81;97636.80;1753148;80;21123;-67
2021/01/17 01:32:53;;;;;;;3.40;1.90;;;;;;;-6.87;80.97;97630.49;1753119;80;21167;-66
2021/01/17 01:35:21;;;;;;;0.80;0.60;;;;;;;-6.83;80.63;97628.27;1753258;82;21159;-67
2021/01/17 01:37:50;;;;;;;1.85;1.75;;;;;;;-6.89;80.30;97629.73;1753363;81;21588;-67
2021/01/17 01:40:18;;;;;;;3.37;0.68;;;;;;;-6.82;80.21;97630.77;1753707;80;21160;-66
2021/01/17 01:42:46;;;;;;;0.80;0.80;;;;;;;-6.71;79.77;97630.44;1753505;80;21566;-66
2021/01/17 01:45:16;;;;;;;1.57;1.35;;;;;;;-6.61;79.79;97624.69;1753431;80;21170;-66
2021/01/17 01:47:44;;;;;;;1.90;1.75;;;;;;;-6.59;79.62;97630.07;1753009;80;21710;-65
2021/01/17 01:50:14;;;;;;;6.30;2.67;;;;;;;-6.67;79.96;97625.69;1753521;80;21325;-72
2021/01/17 01:52:43;;;;;;;3.52;1.77;;;;;;;-6.75;79.94;97622.13;1754074;80;21194;-72
2021/01/17 01:55:13;;;;;;;3.12;1.98;;;;;;;-6.81;80.75;97619.77;1753492;80;21560;-72
2021/01/17 01:57:41;;;;;;;4.92;3.62;;;;;;;-6.83;80.28;97616.91;1753692;81;21592;-72
2021/01/17 02:00:32;;;;;;;2.42;1.52;;;;;;;-6.93;81.44;97619.33;1753610;80;21188;-72
2021/01/17 02:03:00;;;;;;;1.77;1.55;;;;;;;-6.98;80.93;97607.27;1726023;83;21165;-71
2021/01/17 02:05:29;;;;;;;4.78;1.37;;;;;;;-6.84;81.30;97612.30;1726169;83;21164;-71
2021/01/17 02:08:45;;;;;;;1.40;0.80;;;;;;;-6.75;80.43;97608.67;1726002;82;21577;-71
2021/01/17 02:11:59;;;;;;;2.05;1.00;;;;;;;-6.66;79.66;97612.19;1664794;85;21216;-71
2021/01/17 02:15:16;;;;;;;2.17;1.12;;;;;;;-6.56;79.34;97600.09;1656790;85;21643;-72
2021/01/17 02:17:45;;;;;;;3.30;2.20;;;;;;;-6.51;78.96;97600.78;1725138;82;21227;-71
2021/01/17 02:20:17;;;;;;;0.82;0.82;;;;;;;-6.60;78.70;97596.84;1729328;83;21143;-72
2021/01/17 02:23:18;;;;;;;1.32;0.88;;;;;;;-6.50;78.64;97594.44;1729174;83;21159;-71
2021/01/17 02:25:47;;;;;;;1.00;0.68;;;;;;;-6.38;78.42;97591.50;1729169;83;21311;-71
2021/01/17 02:28:19;;;;;;;0.95;0.95;;;;;;;-6.34;77.81;97588.00;1731648;81;21228;-71
2021/01/17 02:33:50;;;;;;;1.52;1.32;;;;;;;-6.18;77.39;97586.23;1766871;80;21647;-73
2021/01/17 02:36:43;;;;;;;1.75;0.78;;;;;;;-6.11;77.11;97587.28;1766612;80;21140;-73
2021/01/17 02:39:48;;;;;;;2.85;1.07;;;;;;;-6.07;77.34;97582.95;1766765;80;21580;-73
2021/01/17 02:42:16;;;;;;;6.17;1.27;;;;;;;-6.34;78.45;97584.20;1766197;80;21180;-66
2021/01/17 02:44:47;;;;;;;5.12;1.77;;;;;;;-6.30;78.34;97581.97;1792664;80;21675;-66
2021/01/17 02:47:15;;;;;;;2.42;1.30;;;;;;;-6.48;79.09;97591.41;1792506;80;21155;-66
2021/01/17 02:49:43;;;;;;;1.40;1.15;;;;;;;-6.54;79.27;97587.83;1792630;80;21604;-66
2021/01/17 02:52:11;;;;;;;1.70;1.60;;;;;;;-6.58;79.83;97587.97;1792403;80;21305;-66
2021/01/17 02:54:41;;;;;;;2.15;1.25;;;;;;;-6.56;80.38;97588.30;1792771;80;21163;-66
2021/01/17 02:57:14;;;;;;;1.92;1.82;;;;;;;-6.58;79.59;97582.48;1792323;80;21313;-66
2021/01/17 03:03:06;;;;;;;0.70;0.70;;;;;;;-6.72;80.75;97582.06;1685892;85;21168;-66
2021/01/17 03:05:36;;;;;;;1.72;1.62;;;;;;;-6.58;80.45;97585.01;1686279;84;21160;-66
2021/01/17 03:08:26;;;;;;;4.53;2.35;;;;;;;-6.63;79.96;97584.75;1663120;85;21195;-66
2021/01/17 03:10:55;;;;;;;0.60;0.60;;;;;;;-6.63;80.34;97581.79;1657218;86;21215;-65
2021/01/17 03:13:24;;;;;;;1.82;1.25;;;;;;;-6.62;80.81;97580.92;1656937;86;21181;-65
2021/01/17 03:15:53;;;;;;;1.35;1.25;;;;;;;-6.65;80.66;97586.05;1657275;86;21238;-65
2021/01/17 03:18:21;;;;;;;3.75;1.65;;;;;;;-6.56;81.08;97579.89;1657344;86;21554;-70
2021/01/17 03:20:49;;;;;;;1.77;1.67;;;;;;;-6.55;80.06;97577.33;1657630;86;21222;-72
2021/01/17 03:23:18;;;;;;;1.65;1.55;;;;;;;-6.57;79.78;97576.97;1657485;86;21209;-72
2021/01/17 03:25:46;;;;;;;3.02;1.60;;;;;;;-6.58;79.90;97578.70;1657500;86;21214;-71
2021/01/17 03:28:15;;;;;;;2.08;1.22;;;;;;;-6.62;80.08;97577.14;1657482;86;21210;-72
2021/01/17 03:30:43;;;;;;;1.80;1.70;;;;;;;-6.70;80.37;97579.07;1657084;86;21258;-69
2021/01/17 03:33:12;;;;;;;2.62;2.05;;;;;;;-6.69;80.06;97566.81;1657444;85;21185;-72
2021/01/17 03:35:40;;;;;;;5.35;1.90;;;;;;;-6.70;81.04;97567.70;1657268;85;21595;-71
2021/01/17 03:38:09;;;;;;;0.70;0.70;;;;;;;-6.81;80.38;97563.42;1657247;86;21174;-71
2021/01/17 03:40:37;;;;;;;2.12;2.02;;;;;;;-6.83;80.40;97571.47;1657383;86;21177;-72
2021/01/17 03:43:05;;;;;;;4.10;1.77;;;;;;;-6.88;80.83;97571.60;1657341;86;21559;-66
2021/01/17 03:45:33;;;;;;;1.92;1.77;;;;;;;-6.96;81.34;97572.27;1657209;85;21169;-66
2021/01/17 03:48:01;;;;;;;1.37;1.27;;;;;;;-6.85;81.19;97577.02;1657342;86;21575;-65
2021/01/17 03:50:31;;;;;;;1.25;1.20;;;;;;;-6.89;81.36;97576.72;1657178;86;21155;-65
2021/01/17 03:52:59;;;;;;;0.72;0.72;;;;;;;-6.89;80.60;97575.02;1657458;85;21610;-66
2021/01/17 03:55:27;;;;;;;1.45;0.70;;;;;;;-6.84;80.37;97576.95;1657270;86;21190;-66
2021/01/17 03:57:56;;;;;;;1.35;1.20;;;;;;;-6.83;80.20;97572.73;1658047;86;21598;-66
2021/01/17 04:00:24;;;;;;;1.57;1.50;;;;;;;-6.98;81.29;97571.50;1658110;86;21142;-66
2021/01/17 04:02:52;;;;;;;1.90;1.80;;;;;;;-6.83;80.19;97567.68;1657988;86;21190;-66
2021/01/17 04:05:21;;;;;;;2.08;1.37;;;;;;;-6.79;79.82;97566.72;1657434;85;21177;-66
2021/01/17 04:07:49;;;;;;;5.35;1.42;;;;;;;-6.88;80.09;97569.51;1657366;85;21574;-66
2021/01/17 04:10:17;;;;;;;1.75;1.35;;;;;;;-6.87;80.37;97564.86;1657011;86;21160;-64
2021/01/17 04:12:45;;;;;;;1.22;1.20;;;;;;;-6.90;81.25;97570.84;1656860;86;21167;-65
2021/01/17 04:15:15;;;;;;;1.95;1.80;;;;;;;-6.85;80.11;97565.19;1656958;85;21592;-64
2021/01/17 04:17:49;;;;;;;2.40;1.47;;;;;;;-6.94;80.70;97574.75;1656944;86;21187;-70
2021/01/17 04:20:18;;;;;;;2.60;2.33;;;;;;;-6.95;80.53;97573.09;1657128;85;21600;-64
2021/01/17 04:22:48;;;;;;;0.62;0.55;;;;;;;-6.98;81.16;97568.15;1656852;86;21200;-66
2021/01/17 04:25:16;;;;;;;2.35;1.37;;;;;;;-6.96;80.88;97563.86;1656902;86;21153;-66
2021/01/17 04:27:45;;;;;;;2.80;2.12;;;;;;;-7.04;80.91;97567.08;1656908;86;21192;-66
2021/01/17 04:30:21;;;;;;;2.10;2.00;;;;;;;-7.07;81.31;97564.63;1656807;85;21177;-66
2021/01/17 04:32:49;;;;;;;2.10;1.15;;;;;;;-7.06;80.79;97565.02;1657172;86;21164;-64
2021/01/17 04:35:18;;;;;;;1.82;1.02;;;;;;;-7.02;80.37;97563.63;1656958;86;21208;-65
2021/01/17 04:37:46;;;;;;;1.98;1.15;;;;;;;-6.93;80.11;97567.16;1656961;86;21192;-63
2021/01/17 04:40:17;;;;;;;2.55;1.37;;;;;;;-6.91;80.56;97562.03;1656947;86;21152;-63
2021/01/17 04:42:49;;;;;;;2.83;2.62;;;;;;;-7.06;80.34;97565.85;1656849;85;21569;-64
2021/01/17 04:45:18;;;;;;;0.75;0.75;;;;;;;-7.10;80.25;97568.08;1657081;86;21180;-66
2021/01/17 04:47:47;;;;;;;2.47;1.77;;;;;;;-7.03;80.02;97568.28;1656780;86;21228;-66
2021/01/17 04:50:17;;;;;;;3.60;1.90;;;;;;;-7.07;80.21;97570.50;1656777;86;21183;-66
2021/01/17 04:53:07;;;;;;;2.75;1.95;;;;;;;-7.03;79.98;97567.45;1656752;85;21184;-72
2021/01/17 04:55:36;;;;;;;0.98;0.98;;;;;;;-7.00;80.09;97570.70;1656910;86;21175;-66
2021/01/17 04:58:24;;;;;;;1.27;0.93;;;;;;;-6.98;79.69;97569.41;1656796;86;21179;-71
2021/01/17 05:00:57;;;;;;;0.98;0.85;;;;;;;-6.96;79.30;97571.44;1629815;88;21210;-71
2021/01/17 05:03:43;;;;;;;3.08;2.20;;;;;;;-6.96;78.92;97575.22;1629625;86;21255;-71
2021/01/17 05:06:28;;;;;;;1.30;1.02;;;;;;;-7.12;79.38;97569.83;1630091;88;21199;-71
2021/01/17 05:09:03;;;;;;;1.37;1.25;;;;;;;-7.12;79.40;97572.78;1629992;86;21595;-70
2021/01/17 05:11:39;;;;;;;0.88;0.88;;;;;;;-7.21;79.54;97575.13;1630153;88;21283;-71
2021/01/17 05:17:05;;;;;;;4.67;2.25;;;;;;;-7.38;81.16;97583.60;1819258;79;22970;-70
2021/01/17 05:19:37;;;;;;;0.85;0.85;;;;;;;-7.45;80.88;97585.48;1792713;80;21285;-70
2021/01/17 05:22:07;;;;;;;0.78;0.78;;;;;;;-7.37;80.23;97596.61;1792891;80;21389;-71
2021/01/17 05:24:39;;;;;;;1.50;1.40;;;;;;;-7.39;79.94;97588.28;1792569;80;21186;-70
2021/01/17 05:27:07;;;;;;;4.58;1.40;;;;;;;-7.37;79.88;97597.45;1792255;80;21254;-70
2021/01/17 05:29:35;;;;;;;0.70;0.70;;;;;;;-7.38;79.63;97602.09;1793349;80;21274;-69
2021/01/17 05:32:06;;;;;;;1.30;1.20;;;;;;;-7.40;80.01;97603.02;1793313;80;21168;-70
2021/01/17 05:34:34;;;;;;;4.30;2.58;;;;;;;-7.48;80.54;97599.44;1793016;80;21155;-70
2021/01/17 05:37:10;;;;;;;2.85;1.37;;;;;;;-7.55;81.86;97603.44;1793098;79;21297;-70
2021/01/17 05:42:43;;;;;;;2.37;1.87;;;;;;;-7.64;81.90;97603.24;1664630;86;21187;-71
2021/01/17 05:45:22;;;;;;;1.60;1.50;;;;;;;-7.62;81.11;97604.02;1680077;85;21474;-71
2021/01/17 05:48:19;;;;;;;1.20;1.00;;;;;;;-7.62;80.96;97606.53;1680377;85;21226;-71
2021/01/17 05:50:47;;;;;;;;;;;;;;;-7.60;80.44;97611.55;1665308;85;21288;-71
2021/01/17 05:53:15;;;;;;;1.00;0.65;;;;;;;-7.56;80.06;97613.13;1662734;86;20432;-70
2021/01/17 05:55:45;;;;;;;1.02;1.02;;;;;;;-7.57;79.90;97617.33;1662537;85;21708;-71
2021/01/17 05:58:30;;;;;;;1.12;1.12;;;;;;;-7.55;79.95;97619.83;1662478;86;21654;-70
2021/01/17 06:01:18;;;;;;;2.72;0.85;;;;;;;-7.53;79.89;97618.08;1662346;86;21181;-71
2021/01/17 06:03:53;;;;;;;2.35;2.15;;;;;;;-7.53;79.34;97614.29;1662408;86;21157;-71
2021/01/17 06:06:28;;;;;;;1.17;0.93;;;;;;;-7.57;79.22;97621.11;1662734;85;21598;-71
2021/01/17 06:09:01;;;;;;;2.30;1.35;;;;;;;-7.64;79.21;97618.80;1662592;86;21149;-69
2021/01/17 06:11:29;;;;;;;2.30;2.10;;;;;;;-7.66;79.38;97621.34;1662492;86;21709;-69
2021/01/17 06:14:06;;;;;;;0.78;0.78;;;;;;;-7.69;79.28;97621.00;1662374;86;21173;-66
2021/01/17 06:16:45;;;;;;;0.72;0.72;;;;;;;-7.67;79.29;97628.54;1662581;86;21189;-70
2021/01/17 06:19:15;;;;;;;1.32;1.22;;;;;;;-7.60;79.25;97628.77;1662777;86;21160;-66
2021/01/17 06:21:48;;;;;;;2.47;1.70;;;;;;;-7.59;78.65;97627.91;1662777;85;21301;-71
2021/01/17 06:24:18;;;;;;;1.25;1.15;;;;;;;-7.60;78.55;97628.77;1663058;86;21279;-69
2021/01/17 06:26:50;;;;;;;2.55;2.35;;;;;;;-7.51;78.78;97636.09;1662540;86;21233;-71
2021/01/17 06:29:19;;;;;;;3.00;2.80;;;;;;;-7.41;78.84;97637.49;1635885;86;21145;-70
2021/01/17 06:31:47;;;;;;;4.45;1.95;;;;;;;-7.29;78.59;97640.11;1662095;86;21162;-66
2021/01/17 06:34:15;;;;;;;2.40;2.20;;;;;;;-7.24;78.06;97638.30;1661927;86;21149;-72
2021/01/17 06:36:46;;;;;;;4.28;3.80;;;;;;;-7.25;77.77;97646.30;1661866;85;21122;-73
2021/01/17 06:39:25;;;;;;;4.58;3.62;;;;;;;-7.24;77.79;97642.89;1662237;86;21162;-65
2021/01/17 06:41:57;;;;;;;1.15;1.05;;;;;;;-7.22;77.88;97646.20;1662130;86;21582;-66
2021/01/17 06:47:22;;;;;;;0.75;0.75;;;;;;;-7.33;77.50;97655.77;1632940;87;21192;-66
2021/01/17 06:49:54;;;;;;;1.30;1.30;;;;;;;-7.27;77.61;97654.76;1633163;87;21266;-66
2021/01/17 06:52:22;;;;;;;0.65;0.65;;;;;;;-7.27;77.05;97658.55;1633105;86;21180;-65
2021/01/17 06:54:53;;;;;;;0.78;0.65;;;;;;;-7.29;76.65;97664.91;1633302;86;21602;-65
2021/01/17 06:57:21;;;;;;;1.52;1.42;;;;;;;-7.37;76.96;97669.33;1633047;88;21196;-65
2021/01/17 06:59:53;;;;;;;0.68;0.60;;;;;;;-7.41;77.23;97671.97;1633099;88;21608;-69
2021/01/17 07:02:34;;;;;;;3.65;1.45;;;;;;;-7.32;76.92;97668.78;1633085;87;21586;-68
2021/01/17 07:11:49;;;;;;;2.42;1.50;;;;;;;-7.23;76.24;97675.25;1761340;80;21184;-72
2021/01/17 07:14:19;;;;;;;10.48;6.17;;;;;;;-7.06;76.64;97675.63;1757282;81;21671;-73
2021/01/17 07:16:49;;;;;;;10.32;5.62;;;;;;;-6.84;76.58;97674.14;1756702;81;21210;-70
2021/01/17 07:19:23;;;;;;;6.53;2.72;;;;;;;-6.66;76.05;97671.97;1732680;81;21565;-70
2021/01/17 07:21:54;;;;;;;3.60;2.08;;;;;;;-6.58;73.92;97672.14;1757912;81;21151;-70
2021/01/17 07:24:26;;;;;;;2.75;2.10;;;;;;;-6.57;72.32;97675.47;1718222;83;21580;-70
2021/01/17 07:27:10;;;;;;;3.35;2.50;;;;;;;-6.70;71.77;97653.99;1726966;82;21423;-70
2021/01/17 07:29:42;;;;;;;4.65;1.87;;;;;;;-6.76;71.90;97681.50;1721555;83;21188;-69
2021/01/17 07:35:14;;;;;;;4.15;1.75;;;;;;;-6.76;72.42;97668.44;1732567;82;21164;-67
2021/01/17 07:37:43;;;;;;;1.27;1.17;;;;;;;-6.79;72.16;97670.23;1727358;83;21140;-73
2021/01/17 07:43:13;;;;;;;24.27;11.50;;;;;;;-6.68;72.89;97664.86;1673704;84;21571;-67
2021/01/17 07:45:42;;;;;;;2.00;1.80;;;;;;;-6.53;73.39;97669.45;1673914;86;21179;-67
2021/01/17 07:48:13;;;;;;;2.55;2.35;;;;;;;-6.41;72.23;97669.92;1673424;84;21191;-67
2021/01/17 07:50:45;;;;;;;3.10;2.90;;;;;;;-6.36;72.02;97674.41;1673459;86;21435;-67
2021/01/17 07:53:24;;;;;;;5.80;2.10;;;;;;;-6.32;72.29;97670.91;1673739;86;21140;-67
2021/01/17 07:56:17;;;;;;;4.55;2.12;;;;;;;-6.35;72.46;97668.92;1673744;86;21187;-67
2021/01/17 07:58:50;;;;;;;3.42;1.47;;;;;;;-6.40;72.41;97674.10;1674019;86;21745;-66
2021/01/17 08:01:39;;;;;;;1.45;1.25;;;;;;;-6.35;72.93;97668.48;1673463;84;21187;-64
2021/01/17 08:04:16;;;;;;;2.90;2.70;;;;;;;-6.31;72.84;97671.31;1673514;84;21191;-64
2021/01/17 08:06:49;;;;;;;3.93;2.30;;;;;;;-6.28;72.89;97671.64;1674184;86;21224;-64
2021/01/17 08:12:34;;;;;;;2.35;0.90;;;;;;;-6.35;73.31;97676.50;1657678;86;21156;-64
2021/01/17 08:15:19;;;;;;;1.67;1.30;;;;;;;-6.17;73.32;97671.30;1664768;85;21176;-64
2021/01/17 08:17:48;;;;;;;6.22;2.50;;;;;;;-6.08;72.96;97678.60;1687521;85;21357;-64
2021/01/17 08:20:42;;;;;;;4.05;3.58;;;;;;;-5.99;72.42;97683.37;1687585;84;21727;-64
2021/01/17 08:23:11;;;;;;;7.03;1.95;;;;;;;-6.04;72.14;97683.52;1704887;84;21225;-64
2021/01/17 08:25:55;;;;;;;2.58;1.77;;;;;;;-5.86;71.44;97687.14;1705032;84;22087;-65
2021/01/17 08:28:37;;;;;;;2.40;2.30;;;;;;;-5.89;70.76;97682.20;1705021;84;21122;-64
2021/01/17 08:31:56;;;;;;;3.40;2.50;;;;;;;-5.91;71.28;97682.23;1705062;83;21737;-64
2021/01/17 08:34:29;;;;;;;3.98;2.00;;;;;;;-5.65;71.23;97690.66;1642209;87;21803;-66
2021/01/17 08:36:58;;;;;;;4.70;3.45;;;;;;;-5.46;70.69;97686.63;1643778;86;21164;-64
2021/01/17 08:39:45;;;;;;;7.42;3.47;;;;;;;-5.26;69.55;97691.84;1644010;87;21182;-66
2021/01/17 08:42:52;;;;;;;3.47;2.90;;;;;;;-5.10;69.66;97689.61;1644084;86;21287;-66
2021/01/17 08:45:26;;;;;;;2.80;2.57;;;;;;;-4.81;69.83;97686.41;1610299;88;21185;-65
2021/01/17 08:48:18;;;;;;;4.25;2.95;;;;;;;-4.51;69.62;97690.78;1610155;88;21222;-66
2021/01/17 08:50:52;;;;;;;6.62;3.20;;;;;;;-4.50;66.55;97701.75;1610451;88;21188;-66
2021/01/17 08:53:32;;;;;;;5.45;3.95;;;;;;;-5.18;67.39;97697.47;1610274;88;21236;-66
2021/01/17 08:59:03;;;;;;;6.55;4.72;;;;;;;-4.81;68.68;97698.25;1595892;89;21177;-65
2021/01/17 09:04:32;;;;;;;9.78;7.10;;;;;;;-4.15;64.46;97694.07;1702241;84;21608;-66
2021/01/17 09:07:01;;;;;;;7.05;4.45;;;;;;;-3.33;65.98;97699.18;1668415;85;21239;-67
2021/01/17 09:09:29;;;;;;;11.00;5.58;;;;;;;-2.71;65.63;97699.45;1669215;84;21630;-66
2021/01/17 09:12:10;;;;;;;8.75;6.12;;;;;;;-2.09;62.67;97693.61;1669047;85;21199;-66
2021/01/17 09:14:39;;;;;;;12.55;7.05;;;;;;;-1.63;63.28;97693.52;1668479;85;21619;-67
2021/01/17 09:17:10;;;;;;;10.30;6.30;;;;;;;-0.99;62.41;97692.42;1668459;84;21178;-65
2021/01/17 09:19:38;;;;;;;13.93;6.62;;;;;;;-0.58;54.65;97689.43;1668432;86;21376;-67
2021/01/17 09:22:09;;;;;;;11.40;6.72;;;;;;;-0.20;54.23;97686.13;1668649;84;21584;-67
2021/01/17 09:24:41;;;;;;;13.08;7.53;;;;;;;-0.06;51.50;97684.46;1668403;84;21178;-66
2021/01/17 09:27:10;;;;;;;12.88;5.95;;;;;;;-0.04;51.19;97686.46;1666647;84;21214;-66
2021/01/17 09:29:42;;;;;;;12.43;7.65;;;;;;;0.32;51.13;97683.60;1668469;84;21152;-66
2021/01/17 09:32:15;;;;;;;12.40;6.80;;;;;;;0.21;51.35;97681.28;1668827;85;21328;-65
2021/01/17 09:34:47;;;;;;;10.15;6.45;;;;;;;0.66;50.61;97680.41;1668500;86;21170;-67
2021/01/17 09:37:19;;;;;;;15.90;7.05;;;;;;;1.17;48.42;97676.05;1668422;86;21151;-66
2021/01/17 09:39:50;;;;;;;15.18;7.83;;;;;;;1.47;47.26;97669.56;1668411;85;21223;-68
2021/01/17 09:42:23;;;;;;;13.80;8.10;;;;;;;1.16;47.47;97678.27;1668286;85;21174;-68
2021/01/17 09:44:57;;;;;;;14.65;8.00;;;;;;;2.06;47.68;97670.97;1668588;84;21222;-68
2021/01/17 09:47:28;;;;;;;28.35;11.93;;;;;;;2.61;47.42;97664.81;1668449;85;21594;-67
2021/01/17 09:50:09;;;;;;;20.05;11.40;;;;;;;2.95;45.09;97668.09;1646694;86;21226;-69
2021/01/17 09:52:42;;;;;;;17.85;10.30;;;;;;;2.94;44.69;97669.01;1658468;86;21199;-69
2021/01/17 09:55:12;;;;;;;24.30;12.68;;;;;;;3.24;43.90;97665.64;1658384;86;22070;-66
2021/01/17 09:57:42;;;;;;;16.97;9.73;;;;;;;2.35;46.25;97669.08;1657817;86;21176;-66
2021/01/17 10:00:22;;;;;;;14.50;8.25;;;;;;;1.60;47.64;97673.45;1658029;86;21607;-65
2021/01/17 10:02:49;;;;;;;14.07;7.92;;;;;;;1.84;47.31;97666.36;1655215;86;21405;-66
2021/01/17 10:05:31;;;;;;;17.05;8.93;;;;;;;0.64;50.21;97668.99;1644046;86;21565;-65
2021/01/17 10:08:09;;;;;;;17.23;8.93;;;;;;;0.95;49.77;97669.30;1643953;87;21192;-66
2021/01/17 10:10:39;;;;;;;17.15;8.83;;;;;;;1.14;48.96;97671.13;1643818;87;21342;-66
2021/01/17 10:13:08;;;;;;;15.98;9.18;;;;;;;0.89;50.03;97670.95;1643702;87;21157;-65
2021/01/17 10:15:41;;;;;;;22.52;9.50;;;;;;;0.09;50.34;97668.75;1643588;86;21611;-65
2021/01/17 10:18:10;;;;;;;13.95;7.80;;;;;;;-0.97;53.45;97668.94;1643822;87;21353;-65
2021/01/17 10:20:39;;;;;;;16.30;7.53;;;;;;;-0.66;53.93;97667.36;1644021;87;21152;-65
2021/01/17 10:23:16;;;;;;;11.70;8.05;;;;;;;-0.34;53.20;97665.62;1643796;86;21196;-65
2021/01/17 10:25:46;;;;;;;16.97;8.33;;;;;;;0.08;51.92;97663.74;1643958;87;21188;-67
2021/01/17 10:28:16;;;;;;;11.88;7.55;;;;;;;-1.89;57.37;97668.95;1643624;86;21177;-68
2021/01/17 10:30:44;;;;;;;12.95;7.00;;;;;;;-0.16;53.97;97669.30;1643900;87;21283;-67
2021/01/17 10:33:15;;;;;;;14.53;7.05;;;;;;;0.60;51.06;97659.03;1644280;87;21265;-68
2021/01/17 10:35:48;;;;;;;10.78;6.95;;;;;;;0.39;50.84;97664.91;1644124;87;21192;-68
2021/01/17 10:38:19;;;;;;;15.83;8.75;;;;;;;-0.79;53.83;97663.35;1644168;87;21838;-68
2021/01/17 10:40:49;;;;;;;14.15;7.10;;;;;;;-1.02;53.92;97661.17;1647351;86;21597;-67
2021/01/17 10:43:54;;;;;;;13.40;6.80;;;;;;;-0.79;53.64;97663.80;1644070;87;21205;-68
2021/01/17 10:46:25;;;;;;;13.40;7.47;;;;;;;0.28;51.34;97656.59;1638439;86;21671;-67
2021/01/17 10:49:10;;;;;;;16.02;7.45;;;;;;;0.31;50.38;97656.41;1686360;84;21313;-67
2021/01/17 10:51:48;;;;;;;13.95;9.60;;;;;;;-0.82;54.29;97660.97;1687101;84;22305;-67
2021/01/17 10:54:31;;;;;;;15.05;8.30;;;;;;;-0.69;53.20;97658.58;1686683;84;21353;-67
2021/01/17 10:57:04;;;;;;;14.07;7.92;;;;;;;0.89;51.13;97653.06;1686786;84;21626;-67
2021/01/17 10:59:35;;;;;;;13.45;7.67;;;;;;;0.73;49.38;97650.58;1686067;84;21214;-67
2021/01/17 11:02:24;;;;;;;17.12;8.45;;;;;;;2.47;47.98;97630.30;1685908;84;21685;-64
2021/01/17 11:04:52;;;;;;;18.20;8.35;;;;;;;3.00;43.77;97633.13;1692609;83;21577;-65
2021/01/17 11:07:27;;;;;;;15.75;8.58;;;;;;;1.01;47.58;97640.83;1692339;83;21616;-67
2021/01/17 11:09:56;;;;;;;15.32;8.10;;;;;;;1.02;48.11;97639.89;1692259;83;21148;-67
2021/01/17 11:12:38;;;;;;;18.15;9.18;;;;;;;1.10;48.01;97644.09;1692273;83;21592;-67
2021/01/17 11:15:18;;;;;;;15.18;7.80;;;;;;;0.91;49.15;97644.83;1692413;83;21223;-67
2021/01/17 11:18:15;;;;;;;14.45;8.98;;;;;;;2.78;45.21;97635.05;1691604;83;21164;-67
2021/01/17 11:20:45;;;;;;;19.27;8.08;;;;;;;3.85;43.75;97632.33;1608859;88;21270;-66
2021/01/17 11:23:14;;;;;;;13.95;8.53;;;;;;;4.57;40.79;97630.84;1609122;87;21166;-68
2021/01/17 11:25:42;;;;;;;13.13;8.63;;;;;;;4.20;40.90;97633.98;1608889;88;21187;-68
2021/01/17 11:28:14;;;;;;;13.25;7.78;;;;;;;3.47;42.64;97637.11;1608856;88;21215;-66
2021/01/17 11:30:42;;;;;;;17.45;9.15;;;;;;;2.70;43.17;97643.25;1608958;88;22134;-68
2021/01/17 11:33:13;;;;;;;21.97;12.78;;;;;;;1.89;46.53;97640.47;1608817;88;21493;-68
2021/01/17 11:35:42;;;;;;;13.30;8.70;;;;;;;0.73;48.38;97639.53;1608785;87;21627;-68
2021/01/17 11:38:10;;;;;;;13.98;8.90;;;;;;;1.79;46.05;97634.30;1608826;87;21194;-68
2021/01/17 11:40:41;;;;;;;14.60;8.78;;;;;;;0.68;47.95;97640.25;1608875;87;21210;-68
2021/01/17 11:43:13;;;;;;;16.85;10.15;;;;;;;0.50;48.92;97639.59;1609129;88;21326;-68
2021/01/17 11:45:44;;;;;;;12.28;6.95;;;;;;;1.61;47.03;97629.86;1608793;88;21191;-67
2021/01/17 11:48:13;;;;;;;13.98;7.97;;;;;;;1.91;46.85;97634.78;1608900;88;21246;-68
2021/01/17 11:50:44;;;;;;;15.08;8.48;;;;;;;1.36;47.32;97629.74;1608883;87;21199;-68
2021/01/17 11:53:13;;;;;;;16.05;7.87;;;;;;;1.43;47.15;97614.38;1609044;88;21190;-68
2021/01/17 11:56:08;;;;;;;13.90;7.78;;;;;;;1.69;46.54;97623.80;1734824;81;21618;-69
2021/01/17 11:58:41;;;;;;;14.53;8.43;;;;;;;1.18;47.44;97623.17;1736790;81;21592;-67
2021/01/17 12:01:13;;;;;;;15.38;8.00;;;;;;;1.52;47.06;97624.50;1737632;82;21739;-68
2021/01/17 12:04:12;;;;;;;14.30;7.87;;;;;;;2.27;45.44;97621.36;1737018;82;21188;-68
2021/01/17 12:06:39;;;;;;;10.78;5.83;;;;;;;1.60;46.18;97630.77;1738248;82;21201;-68
2021/01/17 12:09:08;;;;;;;14.65;8.75;;;;;;;2.88;44.49;97633.49;1738733;82;21191;-68
2021/01/17 12:11:46;;;;;;;15.70;8.20;;;;;;;2.16;44.76;97631.02;1738261;82;21164;-68
2021/01/17 12:14:21;;;;;;;13.45;7.47;;;;;;;2.18;45.26;97630.45;1738691;82;21176;-72
2021/01/17 12:16:53;;;;;;;17.42;8.55;;;;;;;1.64;45.76;97636.05;1738705;82;21175;-68
2021/01/17 12:19:25;;;;;;;14.20;7.97;;;;;;;2.18;46.56;97631.73;1738380;82;21168;-68
2021/01/17 12:21:59;;;;;;;14.23;7.20;;;;;;;2.91;43.56;97623.05;1738251;82;21199;-68
2021/01/17 12:24:28;;;;;;;13.55;7.33;;;;;;;3.25;42.84;97626.70;1738557;82;21178;-68
2021/01/17 12:26:57;;;;;;;19.20;10.13;;;;;;;3.05;43.17;97625.95;1738480;82;21632;-65
2021/01/17 12:29:25;;;;;;;19.52;8.90;;;;;;;0.98;47.95;97635.05;1703141;83;21346;-66
2021/01/17 12:31:56;;;;;;;16.65;7.78;;;;;;;1.79;46.72;97640.21;1722955;83;21185;-68
2021/01/17 12:34:24;;;;;;;18.45;9.28;;;;;;;1.91;47.04;97630.94;1722802;83;21530;-68
2021/01/17 12:36:54;;;;;;;12.58;7.70;;;;;;;0.20;49.83;97642.16;1723125;83;21165;-68